Time;durP1;ratioP1;P1;durP2;ratioP2;P2;SDS_P1;SDS_P2;PMS_P1;PMS_P2;Temp;Humidity;BMP_temperature;BMP_pressure;BME280_temperature;BME280_humidity;BME280_pressure;Samples;Min_cycle;Max_cycle;Signal;HPM_P1;HPM_P2
2023/06/02 00:01:02;;;;;;;10.32;5.68;;;14.60;77.40;;;;;;5102207;28;20019;-83
2023/06/02 00:03:30;;;;;;;11.65;5.40;;;14.60;77.60;;;;;;5097730;28;20055;-84
2023/06/02 00:05:59;;;;;;;11.07;4.72;;;14.60;77.90;;;;;;5111908;28;20434;-83
2023/06/02 00:08:30;;;;;;;8.52;4.95;;;14.50;77.90;;;;;;5115815;28;20022;-82
2023/06/02 00:10:56;;;;;;;10.13;5.78;;;14.40;78.10;;;;;;5107703;28;20396;-82
2023/06/02 00:13:22;;;;;;;9.48;5.47;;;14.40;78.30;;;;;;5098495;28;20019;-83
2023/06/02 00:15:48;;;;;;;13.00;5.22;;;14.40;78.50;;;;;;5099289;28;20030;-83
2023/06/02 00:18:14;;;;;;;13.35;5.15;;;14.30;78.70;;;;;;5104724;28;20017;-82
2023/06/02 00:20:41;;;;;;;8.82;5.32;;;14.30;78.80;;;;;;5121227;28;20031;-82
2023/06/02 00:23:10;;;;;;;10.90;5.63;;;14.30;79.20;;;;;;5124572;28;20050;-83
2023/06/02 00:25:37;;;;;;;13.50;5.40;;;14.20;79.10;;;;;;5116183;28;20070;-82
2023/06/02 00:28:03;;;;;;;12.45;5.35;;;14.20;78.80;;;;;;5109277;28;20022;-82
2023/06/02 00:30:30;;;;;;;13.52;5.95;;;14.30;78.50;;;;;;5098871;28;20020;-83
2023/06/02 00:32:56;;;;;;;16.17;5.95;;;14.30;78.40;;;;;;5104809;28;20050;-82
2023/06/02 00:35:22;;;;;;;10.55;5.88;;;14.30;78.70;;;;;;5107716;28;20384;-83
2023/06/02 00:37:48;;;;;;;13.10;6.45;;;14.20;79.00;;;;;;5093180;28;20020;-83
2023/06/02 00:40:14;;;;;;;11.95;6.45;;;14.20;79.30;;;;;;5093149;28;20393;-82
2023/06/02 00:42:40;;;;;;;16.77;5.57;;;14.10;79.40;;;;;;5096562;28;20031;-83
2023/06/02 00:45:07;;;;;;;10.10;5.40;;;14.10;79.20;;;;;;5096407;28;20036;-83
2023/06/02 00:47:33;;;;;;;11.90;5.40;;;14.10;79.30;;;;;;5095579;28;20100;-83
2023/06/02 00:49:59;;;;;;;16.90;6.13;;;14.10;79.10;;;;;;5099235;28;20439;-83
2023/06/02 00:52:25;;;;;;;11.40;6.47;;;14.10;79.50;;;;;;5094921;28;20518;-83
2023/06/02 00:54:53;;;;;;;13.02;5.57;;;14.10;80.00;;;;;;5103560;28;20046;-83
2023/06/02 00:57:19;;;;;;;13.20;5.00;;;14.10;80.00;;;;;;5108574;28;20016;-82
2023/06/02 00:59:45;;;;;;;10.55;5.18;;;14.00;80.10;;;;;;5110437;28;20081;-82
2023/06/02 01:02:11;;;;;;;11.93;5.07;;;14.00;80.50;;;;;;5094996;28;20053;-82
2023/06/02 01:04:44;;;;;;;10.48;5.35;;;13.90;80.20;;;;;;5079367;28;20066;-82
2023/06/02 01:07:13;;;;;;;12.15;5.03;;;13.90;79.50;;;;;;5104271;28;20020;-81
2023/06/02 01:09:41;;;;;;;9.68;4.45;;;14.00;79.50;;;;;;5107839;28;20430;-82
2023/06/02 01:12:07;;;;;;;11.00;4.68;;;14.00;78.90;;;;;;5104021;28;20122;-82
2023/06/02 01:14:33;;;;;;;6.93;4.75;;;14.00;78.30;;;;;;5096715;28;20032;-81
2023/06/02 01:16:59;;;;;;;9.02;4.03;;;14.00;78.00;;;;;;5119756;28;20028;-82
2023/06/02 01:19:26;;;;;;;7.75;4.10;;;13.90;77.70;;;;;;5092233;28;20034;-82
2023/06/02 01:22:01;;;;;;;6.57;3.90;;;14.00;78.30;;;;;;5109869;28;20027;-83
2023/06/02 01:24:40;;;;;;;8.45;3.88;;;14.00;78.60;;;;;;5092774;28;20418;-83
2023/06/02 01:27:12;;;;;;;13.27;5.65;;;13.90;79.10;;;;;;5092922;28;20108;-82
2023/06/02 01:29:39;;;;;;;10.23;5.22;;;13.90;79.90;;;;;;5106693;28;20016;-84
2023/06/02 01:32:24;;;;;;;10.55;5.18;;;13.90;80.50;;;;;;5106701;28;20022;-82
2023/06/02 01:34:55;;;;;;;9.65;4.57;;;13.80;80.90;;;;;;5096426;28;20039;-83
2023/06/02 01:37:22;;;;;;;10.60;5.22;;;13.80;81.30;;;;;;5114651;28;20077;-82
2023/06/02 01:39:49;;;;;;;9.00;4.97;;;13.80;81.30;;;;;;5092656;28;20070;-83
2023/06/02 01:42:15;;;;;;;11.90;4.35;;;13.80;81.60;;;;;;5093515;28;20015;-82
2023/06/02 01:44:42;;;;;;;7.50;4.47;;;13.80;81.20;;;;;;5112610;28;20035;-83
2023/06/02 01:47:10;;;;;;;6.77;4.53;;;13.90;80.30;;;;;;5094900;28;20020;-84
2023/06/02 01:49:36;;;;;;;12.07;4.63;;;13.90;80.10;;;;;;5102322;28;20271;-83
2023/06/02 01:52:02;;;;;;;10.43;4.40;;;14.00;80.40;;;;;;5098890;28;20024;-84
2023/06/02 01:54:28;;;;;;;8.73;4.18;;;14.10;79.80;;;;;;5097612;28;20121;-83
2023/06/02 01:56:54;;;;;;;14.50;4.85;;;14.10;79.40;;;;;;5099980;28;20108;-83
2023/06/02 01:59:20;;;;;;;8.55;5.18;;;14.10;79.20;;;;;;5108705;28;20466;-82
2023/06/02 02:01:46;;;;;;;9.38;5.07;;;14.20;79.10;;;;;;5100414;28;20054;-81
2023/06/02 02:04:12;;;;;;;8.30;3.83;;;14.20;78.30;;;;;;5104507;28;20015;-83
2023/06/02 02:06:39;;;;;;;8.55;3.92;;;14.30;76.90;;;;;;5102809;28;20108;-84
2023/06/02 02:09:07;;;;;;;7.85;3.03;;;14.40;76.30;;;;;;5096252;28;20020;-83
2023/06/02 02:11:34;;;;;;;9.75;4.22;;;14.40;75.90;;;;;;5097275;28;20028;-83
2023/06/02 02:14:04;;;;;;;10.07;4.15;;;14.50;75.90;;;;;;5106340;28;20027;-82
2023/06/02 02:16:30;;;;;;;9.82;4.75;;;14.60;75.40;;;;;;5098715;28;20110;-83
2023/06/02 02:18:58;;;;;;;7.88;4.38;;;14.60;75.30;;;;;;5087614;28;20095;-83
2023/06/02 02:21:25;;;;;;;8.98;4.00;;;14.70;75.60;;;;;;5100881;28;20058;-83
2023/06/02 02:23:51;;;;;;;11.52;3.80;;;14.80;75.40;;;;;;5104365;28;20083;-83
2023/06/02 02:26:18;;;;;;;5.60;3.72;;;14.90;75.00;;;;;;5116285;28;20043;-83
2023/06/02 02:28:47;;;;;;;10.30;4.63;;;15.10;74.50;;;;;;5097305;28;20016;-82
2023/06/02 02:31:13;;;;;;;5.93;3.55;;;15.20;73.80;;;;;;5109426;28;20026;-84
2023/06/02 02:33:39;;;;;;;8.65;3.80;;;15.40;73.10;;;;;;5079007;28;20016;-83
2023/06/02 02:36:06;;;;;;;11.02;4.40;;;15.50;72.30;;;;;;5097042;28;20028;-83
2023/06/02 02:38:31;;;;;;;4.35;2.75;;;15.70;71.60;;;;;;5104736;28;20114;-83
2023/06/02 02:40:57;;;;;;;6.07;2.97;;;15.80;70.20;;;;;;5109579;28;20464;-83
2023/06/02 02:43:23;;;;;;;10.45;3.92;;;16.00;68.60;;;;;;5115519;28;20031;-84
2023/06/02 02:45:49;;;;;;;9.52;3.17;;;16.10;68.10;;;;;;5096216;28;20032;-84
2023/06/02 02:48:15;;;;;;;5.72;2.65;;;16.10;67.60;;;;;;5111870;28;20028;-84
2023/06/02 02:50:41;;;;;;;7.15;3.10;;;16.10;67.20;;;;;;5118297;28;20035;-85
2023/06/02 02:53:06;;;;;;;7.80;3.25;;;16.10;67.10;;;;;;5099913;28;20027;-84
2023/06/02 02:55:33;;;;;;;5.25;2.80;;;16.10;66.80;;;;;;5104020;28;20063;-84
2023/06/02 02:58:03;;;;;;;6.75;3.10;;;16.20;66.50;;;;;;5110150;28;20012;-84
2023/06/02 03:00:29;;;;;;;7.18;2.85;;;16.20;65.80;;;;;;5108937;28;20472;-83
2023/06/02 03:02:56;;;;;;;6.07;2.92;;;16.20;65.90;;;;;;5087528;28;20074;-85
2023/06/02 03:05:25;;;;;;;4.82;2.65;;;16.30;65.60;;;;;;5109063;28;20028;-84
2023/06/02 03:07:51;;;;;;;7.70;2.72;;;16.30;65.00;;;;;;5109087;28;20062;-84
2023/06/02 03:10:17;;;;;;;3.00;2.27;;;16.40;64.60;;;;;;5095008;28;20069;-84
2023/06/02 03:12:43;;;;;;;7.30;3.38;;;16.50;64.70;;;;;;5094661;28;20473;-84
2023/06/02 03:15:09;;;;;;;4.57;2.80;;;16.50;64.30;;;;;;5101271;28;20028;-83
2023/06/02 03:17:37;;;;;;;7.30;3.60;;;16.50;63.80;;;;;;5103141;28;20024;-83
2023/06/02 03:20:08;;;;;;;;;;;16.60;64.00;;;;;;5124983;28;20012;-82
2023/06/02 03:22:34;;;;;;;7.97;3.22;;;16.60;64.00;;;;;;5128670;28;19896;-84
2023/06/02 03:25:00;;;;;;;6.47;3.47;;;16.60;63.60;;;;;;5112456;28;20115;-84
2023/06/02 03:27:27;;;;;;;6.45;3.47;;;16.60;63.40;;;;;;5097546;28;20425;-82
2023/06/02 03:29:53;;;;;;;7.10;3.08;;;16.70;63.00;;;;;;5098374;28;20034;-83
2023/06/02 03:32:19;;;;;;;11.73;4.05;;;16.90;63.30;;;;;;5099448;28;20020;-84
2023/06/02 03:34:46;;;;;;;8.57;3.20;;;16.90;62.60;;;;;;5109373;28;20037;-83
2023/06/02 03:37:12;;;;;;;6.97;3.65;;;17.00;62.80;;;;;;5106464;28;20022;-83
2023/06/02 03:39:38;;;;;;;10.05;3.95;;;17.10;63.10;;;;;;5110988;28;20098;-84
2023/06/02 03:42:05;;;;;;;8.50;4.13;;;17.10;62.80;;;;;;5110154;28;20028;-84
2023/06/02 03:44:31;;;;;;;9.80;4.72;;;17.10;62.40;;;;;;5106409;28;20035;-85
2023/06/02 03:46:57;;;;;;;5.00;3.67;;;17.00;62.40;;;;;;5110793;28;20050;-85
2023/06/02 03:49:27;;;;;;;7.95;4.18;;;17.00;63.00;;;;;;5110781;28;20075;-84
2023/06/02 03:51:53;;;;;;;12.00;4.22;;;16.90;62.70;;;;;;5101607;28;20024;-85
2023/06/02 03:54:19;;;;;;;8.63;4.03;;;16.90;62.40;;;;;;5102462;28;20035;-85
2023/06/02 03:56:45;;;;;;;7.55;4.13;;;16.90;62.50;;;;;;5096247;28;20452;-85
2023/06/02 03:59:10;;;;;;;8.52;3.85;;;16.80;62.30;;;;;;5094387;28;20118;-85
2023/06/02 04:01:39;;;;;;;7.60;3.38;;;16.80;62.50;;;;;;5101256;28;20397;-84
2023/06/02 04:04:05;;;;;;;9.95;4.10;;;16.70;62.50;;;;;;5094598;28;20473;-84
2023/06/02 04:06:31;;;;;;;7.93;4.28;;;16.60;62.70;;;;;;5076842;28;20536;-83
2023/06/02 04:08:57;;;;;;;11.75;4.45;;;16.40;63.10;;;;;;5094415;28;20020;-83
2023/06/02 04:11:23;;;;;;;8.65;4.32;;;16.20;63.80;;;;;;5096443;28;20020;-83
2023/06/02 04:13:49;;;;;;;10.00;5.30;;;16.20;65.20;;;;;;5103040;28;20019;-83
2023/06/02 04:16:15;;;;;;;9.27;5.63;;;16.20;66.20;;;;;;5098029;28;20028;-82
2023/06/02 04:18:41;;;;;;;11.40;6.13;;;16.30;67.40;;;;;;5093856;28;20063;-84
2023/06/02 04:21:07;;;;;;;9.98;6.03;;;16.40;68.10;;;;;;5093342;28;20052;-83
2023/06/02 04:23:33;;;;;;;13.93;6.00;;;16.50;68.20;;;;;;5107590;28;20370;-83
2023/06/02 04:25:59;;;;;;;9.88;6.55;;;16.50;67.30;;;;;;5087212;28;20047;-83
2023/06/02 04:28:25;;;;;;;11.32;6.50;;;16.50;67.70;;;;;;5085570;28;20015;-84
2023/06/02 04:30:54;;;;;;;13.95;6.65;;;16.50;67.30;;;;;;5111247;28;20027;-84
2023/06/02 04:33:20;;;;;;;15.65;6.55;;;16.50;67.10;;;;;;5105433;28;20024;-85
2023/06/02 04:35:46;;;;;;;10.73;4.95;;;16.50;67.70;;;;;;5120465;28;20024;-83
2023/06/02 04:38:13;;;;;;;8.82;4.63;;;16.60;67.20;;;;;;5084673;28;20020;-84
2023/06/02 04:40:39;;;;;;;9.67;5.40;;;16.60;67.30;;;;;;5101972;28;20065;-84
2023/06/02 04:43:05;;;;;;;8.88;4.93;;;16.70;67.30;;;;;;5121682;28;20244;-84
2023/06/02 04:45:31;;;;;;;8.65;3.92;;;16.80;66.60;;;;;;5112704;28;20042;-84
2023/06/02 04:47:58;;;;;;;11.57;5.30;;;16.90;66.00;;;;;;5099478;28;20020;-85
2023/06/02 04:50:25;;;;;;;10.20;4.18;;;17.00;66.10;;;;;;5079417;28;20393;-84
2023/06/02 04:52:51;;;;;;;10.07;5.95;;;17.00;65.70;;;;;;5100292;28;20092;-85
2023/06/02 04:55:17;;;;;;;8.50;3.90;;;17.00;66.20;;;;;;5088404;28;20082;-83
2023/06/02 04:57:44;;;;;;;17.15;5.10;;;17.10;65.80;;;;;;5097966;28;20431;-83
2023/06/02 05:00:12;;;;;;;10.13;4.57;;;17.10;66.30;;;;;;5089235;28;20516;-83
2023/06/02 05:02:39;;;;;;;6.45;4.07;;;17.00;66.00;;;;;;5098726;28;20025;-82
2023/06/02 05:05:05;;;;;;;9.02;3.70;;;17.00;66.70;;;;;;5098565;28;20031;-84
2023/06/02 05:07:32;;;;;;;7.03;3.75;;;16.90;67.40;;;;;;5095425;28;20620;-85
2023/06/02 05:09:57;;;;;;;11.07;4.90;;;16.90;67.70;;;;;;5095197;28;20349;-85
2023/06/02 05:12:25;;;;;;;7.05;3.97;;;17.00;67.50;;;;;;5105881;28;20027;-84
2023/06/02 05:14:51;;;;;;;;;;;17.10;67.80;;;;;;5100179;28;20035;-84
2023/06/02 05:17:22;;;;;;;7.93;4.53;;;17.40;67.40;;;;;;5113800;28;20270;-83
2023/06/02 05:19:48;;;;;;;9.10;4.88;;;17.60;68.10;;;;;;5100028;28;20125;-83
2023/06/02 05:22:14;;;;;;;10.70;4.15;;;18.00;66.30;;;;;;5109875;28;20051;-85
2023/06/02 05:24:40;;;;;;;7.95;4.53;;;18.30;65.70;;;;;;5081932;28;20073;-85
2023/06/02 05:27:07;;;;;;;10.55;4.40;;;18.50;64.10;;;;;;5094910;28;20089;-85
2023/06/02 05:29:33;;;;;;;8.80;4.40;;;18.70;62.90;;;;;;5094717;28;20012;-85
2023/06/02 05:31:58;;;;;;;15.10;5.45;;;18.80;63.40;;;;;;5103302;28;20020;-85
2023/06/02 05:34:25;;;;;;;12.15;5.60;;;19.20;63.40;;;;;;5088412;28;20070;-84
2023/06/02 05:36:50;;;;;;;7.80;4.95;;;19.90;62.00;;;;;;5114167;28;20058;-84
2023/06/02 05:39:16;;;;;;;11.77;5.93;;;20.60;59.60;;;;;;5095292;28;20380;-86
2023/06/02 05:41:43;;;;;;;18.33;5.15;;;21.60;58.10;;;;;;5092602;28;20104;-84
2023/06/02 05:44:09;;;;;;;16.80;5.20;;;22.90;54.80;;;;;;5106933;28;20110;-82
2023/06/02 05:46:38;;;;;;;20.35;6.00;;;23.90;52.70;;;;;;5104221;28;20532;-83
2023/06/02 05:49:04;;;;;;;13.35;5.95;;;24.40;50.00;;;;;;5118113;28;20111;-83
2023/06/02 05:51:30;;;;;;;15.18;6.00;;;25.20;49.40;;;;;;5101230;28;20054;-83
2023/06/02 05:53:58;;;;;;;22.58;8.05;;;26.10;47.70;;;;;;5107797;28;20028;-88
2023/06/02 05:56:23;;;;;;;;;;;26.90;46.70;;;;;;5094630;28;20089;-87
2023/06/02 05:58:49;;;;;;;18.40;5.00;;;27.30;47.50;;;;;;5094025;28;19923;-85
2023/06/02 06:01:15;;;;;;;11.23;4.75;;;27.60;43.90;;;;;;5122306;28;20080;-86
2023/06/02 06:03:41;;;;;;;7.57;3.67;;;27.30;43.20;;;;;;5109508;28;20442;-86
2023/06/02 06:06:08;;;;;;;9.13;3.83;;;27.20;43.20;;;;;;5108077;28;20048;-86
2023/06/02 06:08:35;;;;;;;9.55;4.20;;;27.80;42.70;;;;;;5101924;28;20020;-84
2023/06/02 06:11:02;;;;;;;9.07;4.00;;;;;;;;;;5109280;28;20380;-87
2023/06/02 06:13:28;;;;;;;12.45;4.35;;;29.00;42.10;;;;;;5081499;28;20476;-87
2023/06/02 06:15:54;;;;;;;7.93;3.47;;;30.60;39.50;;;;;;5098199;28;20028;-86
2023/06/02 06:18:20;;;;;;;9.00;3.95;;;31.50;38.40;;;;;;5105935;28;20089;-85
2023/06/02 06:20:46;;;;;;;9.32;4.45;;;32.20;37.60;;;;;;5105201;28;20186;-87
2023/06/02 06:23:14;;;;;;;13.57;4.40;;;32.80;36.70;;;;;;5103059;28;20507;-85
2023/06/02 06:25:40;;;;;;;20.50;5.93;;;33.30;36.40;;;;;;5100207;28;20028;-85
2023/06/02 06:28:06;;;;;;;28.03;8.93;;;33.60;35.90;;;;;;5098604;28;20378;-87
2023/06/02 06:30:32;;;;;;;11.67;3.97;;;34.20;35.30;;;;;;5104580;28;20024;-87
2023/06/02 06:32:59;;;;;;;11.77;4.30;;;34.80;34.20;;;;;;5105123;28;20592;-85
2023/06/02 06:35:25;;;;;;;13.82;6.40;;;34.80;33.90;;;;;;5112160;28;20020;-86
2023/06/02 06:37:51;;;;;;;11.88;3.85;;;35.20;33.90;;;;;;5118271;28;20039;-86
2023/06/02 06:40:17;;;;;;;6.43;3.43;;;35.80;33.00;;;;;;5124322;28;20020;-86
2023/06/02 06:42:43;;;;;;;13.10;4.63;;;35.50;32.60;;;;;;5108638;28;20260;-87
2023/06/02 06:45:10;;;;;;;11.67;3.77;;;35.70;33.00;;;;;;5112816;28;20036;-85
2023/06/02 06:47:35;;;;;;;9.13;3.63;;;35.80;32.30;;;;;;5098621;28;20264;-86
2023/06/02 06:50:01;;;;;;;21.15;4.15;;;35.90;31.80;;;;;;5128702;28;20036;-86
2023/06/02 06:52:27;;;;;;;7.03;3.40;;;35.90;31.30;;;;;;5102525;28;20019;-84
2023/06/02 06:54:56;;;;;;;7.23;2.90;;;34.60;31.70;;;;;;5109601;28;20050;-85
2023/06/02 06:57:22;;;;;;;10.90;3.13;;;33.90;32.10;;;;;;5102001;28;20020;-86
2023/06/02 06:59:48;;;;;;;12.00;3.57;;;33.20;33.10;;;;;;5099052;28;20016;-84
2023/06/02 07:02:16;;;;;;;8.13;3.87;;;32.90;33.40;;;;;;5114518;28;20020;-87
2023/06/02 07:04:42;;;;;;;7.70;4.00;;;33.10;33.70;;;;;;5088709;28;20035;-86
2023/06/02 07:07:08;;;;;;;11.73;4.00;;;33.10;33.90;;;;;;5123331;28;20388;-87
2023/06/02 07:09:34;;;;;;;10.30;3.95;;;33.20;33.00;;;;;;5105165;28;20125;-85
2023/06/02 07:12:00;;;;;;;13.23;3.78;;;34.00;33.30;;;;;;5091305;28;20035;-86
2023/06/02 07:14:27;;;;;;;13.77;4.17;;;35.40;32.70;;;;;;5102983;28;20405;-87
2023/06/02 07:16:54;;;;;;;7.80;3.60;;;36.50;31.60;;;;;;5092467;28;20016;-87
2023/06/02 07:19:23;;;;;;;9.32;4.35;;;37.10;30.60;;;;;;5096788;28;20020;-86
2023/06/02 07:21:50;;;;;;;9.82;4.28;;;37.50;30.60;;;;;;5095940;28;20022;-87
2023/06/02 07:24:15;;;;;;;;;;;37.80;30.50;;;;;;5079495;28;20500;-88
2023/06/02 07:26:41;;;;;;;;;;;38.00;30.90;;;;;;5094416;28;19923;-87
2023/06/02 07:29:07;;;;;;;10.77;4.78;;;37.50;31.40;;;;;;5088810;28;19904;-88
2023/06/02 07:34:55;;;;;;;12.02;4.40;;;37.20;30.60;;;;;;5105263;28;20053;-88
2023/06/02 07:37:21;;;;;;;11.65;4.70;;;37.70;30.90;;;;;;5077969;28;20502;-86
2023/06/02 07:39:47;;;;;;;10.15;4.20;;;38.30;30.40;;;;;;5096155;28;20054;-88
2023/06/02 07:42:13;;;;;;;11.48;4.63;;;38.80;29.70;;;;;;5096127;28;20047;-90
2023/06/02 07:48:01;;;;;;;23.00;4.18;;;39.50;29.80;;;;;;5098131;28;20077;-87
2023/06/02 07:50:27;;;;;;;13.85;4.07;;;39.60;29.60;;;;;;5097324;28;20032;-86
2023/06/02 07:52:54;;;;;;;7.60;3.58;;;39.80;28.90;;;;;;5105938;28;20016;-88
2023/06/02 07:55:21;;;;;;;12.20;4.03;;;40.20;29.10;;;;;;5097374;28;20496;-87
2023/06/02 07:57:46;;;;;;;;;;;40.30;28.80;;;;;;5099079;28;20048;-88
2023/06/02 08:00:17;;;;;;;9.20;3.25;;;40.20;29.60;;;;;;5093023;28;19904;-88
2023/06/02 08:02:46;;;;;;;7.00;3.22;;;40.30;28.80;;;;;;5100799;28;20166;-85
2023/06/02 08:05:13;;;;;;;13.43;3.50;;;40.80;28.70;;;;;;5093413;28;20484;-88
2023/06/02 08:07:39;;;;;;;4.65;3.35;;;;;;;;;;5096994;28;20016;-87
2023/06/02 08:10:06;;;;;;;6.00;2.83;;;;;;;;;;5082221;28;20024;-87
2023/06/02 08:12:32;;;;;;;7.63;3.50;;;41.40;28.30;;;;;;5100352;28;20024;-85
2023/06/02 08:14:58;;;;;;;15.75;3.83;;;42.10;27.50;;;;;;5120149;28;20100;-86
2023/06/02 08:17:29;;;;;;;8.10;3.78;;;41.80;27.80;;;;;;5106366;28;20434;-86
2023/06/02 08:19:59;;;;;;;6.90;3.30;;;40.30;28.10;;;;;;5095156;28;20103;-86
2023/06/02 08:22:26;;;;;;;13.25;5.68;;;39.40;28.70;;;;;;5096107;28;20443;-87
2023/06/02 08:24:53;;;;;;;11.65;4.03;;;39.70;29.30;;;;;;5098801;28;20077;-86
2023/06/02 08:27:21;;;;;;;10.80;3.58;;;40.80;29.10;;;;;;5115720;28;20016;-86
2023/06/02 08:29:51;;;;;;;6.50;3.42;;;41.00;28.80;;;;;;5113104;28;20035;-86
2023/06/02 08:32:22;;;;;;;13.98;4.38;;;40.90;28.50;;;;;;5105424;28;20016;-86
2023/06/02 08:34:54;;;;;;;6.72;3.47;;;40.60;29.00;;;;;;5103307;28;20106;-86
2023/06/02 08:37:21;;;;;;;8.52;4.07;;;41.10;29.50;;;;;;5104373;28;20082;-85
2023/06/02 08:39:49;;;;;;;10.35;3.97;;;41.40;29.00;;;;;;5078584;28;20020;-86
2023/06/02 08:42:15;;;;;;;14.52;4.30;;;41.60;29.00;;;;;;5096255;28;20016;-87
2023/06/02 08:44:43;;;;;;;8.82;4.20;;;42.20;28.80;;;;;;5105560;28;20618;-88
2023/06/02 08:47:11;;;;;;;11.43;5.00;;;42.30;28.50;;;;;;5095634;28;20035;-87
2023/06/02 08:49:41;;;;;;;16.27;5.00;;;42.40;28.50;;;;;;5085901;28;20382;-88
2023/06/02 08:52:14;;;;;;;13.13;4.32;;;42.40;28.70;;;;;;5101132;28;20024;-88
2023/06/02 08:54:41;;;;;;;9.55;4.30;;;42.70;28.80;;;;;;5086879;28;20139;-89
2023/06/02 08:57:09;;;;;;;12.55;4.32;;;43.20;29.00;;;;;;5096058;28;20492;-87
2023/06/02 08:59:36;;;;;;;10.73;5.13;;;42.80;28.20;;;;;;5115060;28;20022;-85
2023/06/02 09:02:01;;;;;;;20.95;5.85;;;42.30;28.60;;;;;;5114202;28;20024;-87
2023/06/02 09:04:28;;;;;;;;;;;42.30;28.60;;;;;;5081125;28;20023;-88
2023/06/02 09:07:11;;;;;;;9.02;4.20;;;42.00;29.10;;;;;;5095458;28;19999;-87
2023/06/02 09:09:42;;;;;;;7.93;5.20;;;42.10;28.90;;;;;;5109050;28;20023;-87
2023/06/02 09:12:09;;;;;;;20.15;4.70;;;42.30;28.70;;;;;;5095173;28;20012;-87
2023/06/02 09:17:42;;;;;;;8.38;4.10;;;42.60;28.30;;;;;;5096200;28;20131;-87
2023/06/02 09:20:10;;;;;;;;;;;40.40;28.70;;;;;;5100739;28;20043;-88
2023/06/02 09:22:53;;;;;;;10.07;3.72;;;39.20;29.60;;;;;;5105076;28;19969;-87
2023/06/02 09:25:24;;;;;;;12.15;5.20;;;39.10;30.20;;;;;;5102285;28;20024;-86
2023/06/02 09:28:00;;;;;;;12.38;4.07;;;39.40;30.20;;;;;;5102869;28;20020;-85
2023/06/02 09:30:27;;;;;;;16.90;4.68;;;40.00;29.90;;;;;;5087425;28;20114;-88
2023/06/02 09:33:34;;;;;;;9.65;4.15;;;40.50;29.90;;;;;;5119299;28;20039;-88
2023/06/02 09:36:00;;;;;;;12.98;4.80;;;40.70;29.50;;;;;;5106810;28;20084;-87
2023/06/02 09:38:26;;;;;;;12.10;5.72;;;40.10;29.90;;;;;;5112204;28;20055;-89
2023/06/02 09:40:52;;;;;;;;;;;39.70;30.10;;;;;;5111425;28;20438;-87
2023/06/02 09:43:28;;;;;;;13.73;4.57;;;39.30;30.40;;;;;;5113201;28;19903;-87
2023/06/02 09:46:01;;;;;;;9.82;4.20;;;39.00;30.60;;;;;;5107773;28;20024;-86
2023/06/02 09:48:27;;;;;;;14.65;4.70;;;39.70;30.70;;;;;;5104594;28;20028;-88
2023/06/02 09:50:54;;;;;;;11.43;5.20;;;40.40;30.00;;;;;;5086831;28;20039;-87
2023/06/02 09:53:22;;;;;;;;;;;41.20;30.00;;;;;;5101433;28;20023;-87
2023/06/02 09:55:49;;;;;;;7.00;4.00;;;41.90;30.00;;;;;;5106784;28;19922;-88
2023/06/02 09:58:15;;;;;;;9.93;5.00;;;42.40;29.20;;;;;;5114643;28;20030;-86
2023/06/02 10:00:41;;;;;;;;;;;41.90;28.80;;;;;;5093579;28;20052;-86
2023/06/02 10:03:07;;;;;;;8.45;3.97;;;40.30;29.30;;;;;;5115961;28;19909;-86
2023/06/02 10:05:37;;;;;;;11.88;4.88;;;39.70;29.60;;;;;;5115986;28;20035;-86
2023/06/02 10:08:15;;;;;;;9.35;4.05;;;39.30;30.00;;;;;;5090537;28;20505;-87
2023/06/02 10:11:02;;;;;;;12.20;4.68;;;39.50;30.10;;;;;;5104462;28;20084;-87
2023/06/02 10:14:03;;;;;;;5.65;4.00;;;39.80;29.90;;;;;;5101616;28;20024;-87
2023/06/02 10:16:49;;;;;;;13.32;4.47;;;;;;;;;;5113707;28;20020;-86
2023/06/02 10:19:41;;;;;;;13.23;5.60;;;40.00;29.50;;;;;;5095378;28;20057;-87
2023/06/02 10:22:27;;;;;;;14.85;4.28;;;;;;;;;;5107004;28;20024;-84
2023/06/02 10:25:11;;;;;;;10.73;3.70;;;35.60;30.50;;;;;;5108826;28;20064;-86
2023/06/02 10:27:39;;;;;;;15.65;6.78;;;34.00;31.90;;;;;;5124023;28;20783;-86
2023/06/02 10:30:06;;;;;;;61.22;8.40;;;32.40;33.60;;;;;;5119341;28;20020;-86
2023/06/02 10:32:33;;;;;;;;;;;;;;;;;;5106671;28;20020;-88
2023/06/02 10:35:00;;;;;;;10.18;4.53;;;31.30;34.70;;;;;;5100724;28;20273;-86
2023/06/02 10:37:26;;;;;;;;;;;29.10;36.80;;;;;;5084881;28;20488;-86
2023/06/02 10:39:56;;;;;;;11.60;5.03;;;28.50;36.60;;;;;;5077993;28;19926;-87
2023/06/02 10:42:31;;;;;;;12.55;4.93;;;28.10;37.80;;;;;;5099239;28;20063;-88
2023/06/02 10:45:22;;;;;;;9.60;4.70;;;27.50;38.50;;;;;;5116448;28;20020;-88
2023/06/02 10:47:48;;;;;;;9.20;4.72;;;27.50;39.00;;;;;;5105335;28;20022;-86
2023/06/02 10:50:18;;;;;;;10.75;3.83;;;27.70;39.20;;;;;;5098316;28;20023;-87
2023/06/02 10:53:04;;;;;;;5.85;4.10;;;27.80;37.80;;;;;;5096425;28;20070;-87
2023/06/02 10:55:37;;;;;;;12.38;6.32;;;27.70;37.90;;;;;;5074755;28;20056;-87
2023/06/02 10:58:07;;;;;;;15.20;8.20;;;27.50;38.30;;;;;;5079038;28;20052;-88
2023/06/02 11:00:35;;;;;;;16.98;7.40;;;27.50;39.20;;;;;;5086334;28;20032;-87
2023/06/02 11:03:25;;;;;;;20.00;10.45;;;27.50;39.30;;;;;;5105357;28;20031;-87
2023/06/02 11:06:12;;;;;;;11.93;6.10;;;27.50;39.60;;;;;;5094287;28;20105;-83
2023/06/02 11:08:38;;;;;;;13.30;5.00;;;;;;;;;;5087137;28;20027;-88
2023/06/02 11:11:04;;;;;;;8.40;4.30;;;;;;;;;;5083530;28;20029;-86
2023/06/02 11:13:30;;;;;;;9.70;5.07;;;;;;;;;;5096928;28;20103;-87
2023/06/02 11:15:59;;;;;;;11.00;4.90;;;27.10;39.20;;;;;;5098374;28;20028;-88
2023/06/02 11:18:28;;;;;;;7.80;4.47;;;26.30;40.70;;;;;;5097843;28;20020;-88
2023/06/02 11:20:56;;;;;;;8.32;3.97;;;26.30;39.30;;;;;;5084316;28;20028;-86
2023/06/02 11:23:23;;;;;;;7.22;4.88;;;26.30;39.00;;;;;;5090445;28;20025;-86
2023/06/02 11:26:10;;;;;;;9.65;4.20;;;26.40;39.00;;;;;;5078077;28;20033;-86
2023/06/02 11:28:36;;;;;;;10.15;3.80;;;26.80;39.70;;;;;;5086946;28;20020;-86
2023/06/02 11:31:16;;;;;;;9.23;4.55;;;26.80;40.00;;;;;;5082350;28;20047;-86
2023/06/02 11:33:50;;;;;;;7.88;4.10;;;26.50;40.30;;;;;;5091304;28;20028;-86
2023/06/02 11:36:28;;;;;;;15.73;4.70;;;26.40;40.10;;;;;;5104170;28;20016;-86
2023/06/02 11:39:06;;;;;;;7.68;3.90;;;26.20;39.30;;;;;;5094368;28;20024;-87
2023/06/02 11:41:32;;;;;;;10.95;5.03;;;26.00;39.50;;;;;;5089643;28;20021;-86
2023/06/02 11:44:05;;;;;;;7.57;3.83;;;26.00;39.80;;;;;;5077876;28;20029;-88
2023/06/02 11:46:32;;;;;;;8.68;4.07;;;26.20;39.60;;;;;;5082315;28;20040;-88
2023/06/02 11:48:58;;;;;;;16.67;5.43;;;26.20;39.00;;;;;;5080608;28;20016;-87
2023/06/02 11:51:24;;;;;;;8.45;4.57;;;26.20;39.90;;;;;;5082298;28;20117;-86
2023/06/02 11:54:03;;;;;;;7.88;4.20;;;26.30;39.80;;;;;;5085820;28;20338;-87
2023/06/02 11:56:30;;;;;;;7.10;3.60;;;26.40;40.40;;;;;;5107003;28;20118;-87
2023/06/02 11:59:53;;;;;;;9.57;4.32;;;26.40;38.30;;;;;;5084225;28;20043;-87
2023/06/02 12:02:23;;;;;;;6.65;4.18;;;26.10;38.90;;;;;;5096715;28;20024;-86
2023/06/02 12:04:49;;;;;;;9.30;3.78;;;26.10;39.20;;;;;;5097033;28;20099;-86
2023/06/02 12:07:15;;;;;;;9.77;4.50;;;26.00;39.20;;;;;;5096654;28;20385;-87
2023/06/02 12:09:47;;;;;;;5.80;4.05;;;26.10;39.00;;;;;;5102373;28;20011;-85
2023/06/02 12:12:14;;;;;;;7.45;3.53;;;26.20;38.80;;;;;;5114423;28;20028;-86
2023/06/02 12:14:40;;;;;;;8.05;3.90;;;26.10;38.30;;;;;;5099797;28;20034;-87
2023/06/02 12:17:06;;;;;;;14.27;5.00;;;26.00;39.00;;;;;;5089355;28;20064;-87
2023/06/02 12:19:31;;;;;;;8.88;4.93;;;25.70;39.60;;;;;;5114778;28;20076;-88
2023/06/02 12:22:08;;;;;;;11.27;4.63;;;25.60;39.80;;;;;;5109232;28;20028;-86
2023/06/02 12:24:38;;;;;;;12.77;6.03;;;25.50;39.80;;;;;;5097387;28;20381;-87
2023/06/02 12:27:05;;;;;;;8.05;4.95;;;25.40;40.10;;;;;;5097205;28;20040;-87
2023/06/02 12:29:31;;;;;;;;;;;25.50;40.50;;;;;;5102913;28;20028;-89
2023/06/02 12:31:58;;;;;;;7.60;4.23;;;25.60;40.20;;;;;;5094169;28;19904;-85
2023/06/02 12:34:24;;;;;;;8.52;4.68;;;25.80;40.50;;;;;;5087815;28;20271;-86
2023/06/02 12:36:51;;;;;;;16.02;5.45;;;25.90;41.60;;;;;;5111929;28;20032;-87
2023/06/02 12:39:17;;;;;;;16.40;5.40;;;25.90;41.30;;;;;;5093696;28;20019;-86
2023/06/02 12:41:43;;;;;;;8.67;5.30;;;25.80;41.70;;;;;;5079347;28;20028;-86
2023/06/02 12:44:09;;;;;;;7.82;4.47;;;26.00;41.60;;;;;;5109134;28;20303;-85
2023/06/02 12:46:35;;;;;;;10.60;4.82;;;26.20;41.10;;;;;;5108419;28;20485;-86
2023/06/02 12:49:03;;;;;;;10.18;4.97;;;26.10;40.60;;;;;;5115002;28;20030;-88
2023/06/02 12:51:29;;;;;;;13.70;5.78;;;26.00;41.10;;;;;;5085952;28;20515;-86
2023/06/02 12:53:55;;;;;;;8.27;4.50;;;26.10;41.10;;;;;;5079146;28;20043;-85
2023/06/02 12:56:21;;;;;;;16.00;5.43;;;26.20;40.90;;;;;;5083902;28;20036;-86
2023/06/02 12:58:47;;;;;;;13.70;4.85;;;26.00;41.20;;;;;;5100020;28;20028;-87
2023/06/02 13:01:13;;;;;;;12.48;4.68;;;26.00;41.30;;;;;;5086303;28;20028;-86
2023/06/02 13:03:42;;;;;;;9.88;4.55;;;26.00;41.10;;;;;;5097274;28;20021;-86